Terminal Aerodrome Forecast
Issued by NWS Portland, OR

Home | Current Version | Previous Version | Text Only | Print | Product List | Glossary On
Versions: 1 2 3 4 5 6 7 8 9 10 11 12 13 14 15 16
000
FTUS46 KPQR 180531
TAFAST
TAF
KAST 180531Z 1806/1906 27009KT P6SM SCT020 BKN035 OVC060
     FM181300 26015G25KT 6SM -RA SCT015 OVC025
     FM181900 28012G20KT P6SM -SHRA SCT015 BKN025 OVC040
     FM182200 35011KT P6SM VCSH SCT025 BKN045
     FM190200 02009KT P6SM SCT035=

USA.gov is the U.S. government's official web portal to all federal, state and local government web resources and services.